Time;durP1;ratioP1;P1;durP2;ratioP2;P2;SDS_P1;SDS_P2;PMS_P1;PMS_P2;Temp;Humidity;BMP_temperature;BMP_pressure;BME280_temperature;BME280_humidity;BME280_pressure;Samples;Min_cycle;Max_cycle;Signal;HPM_P1;HPM_P2
2021/10/21 00:01:08;;;;;;;14.10;3.80;;;;;;;14.77;61.16;99116.92;113596;1199;22454;-78
2021/10/21 00:04:01;;;;;;;11.20;3.80;;;;;;;14.77;61.08;99116.36;113514;1200;22542;-77
2021/10/21 00:06:32;;;;;;;10.80;4.30;;;;;;;14.76;60.98;99108.51;113544;1200;25207;-78
2021/10/21 00:09:04;;;;;;;11.00;4.60;;;;;;;14.74;61.10;99094.18;113491;1200;22520;-78
2021/10/21 00:11:39;;;;;;;13.80;5.10;;;;;;;14.72;61.17;99090.73;113532;1200;24585;-78
2021/10/21 00:14:11;;;;;;;15.30;4.00;;;;;;;14.70;61.13;99092.15;113519;1193;24089;-78
2021/10/21 00:16:42;;;;;;;12.80;4.00;;;;;;;14.67;61.09;99090.61;113451;1200;24142;-77
2021/10/21 00:19:14;;;;;;;11.70;4.60;;;;;;;14.65;61.29;99091.71;113399;1200;22475;-78
2021/10/21 00:21:48;;;;;;;14.10;5.40;;;;;;;14.62;61.32;99086.40;113459;1200;24068;-77
2021/10/21 00:24:19;;;;;;;11.20;4.00;;;;;;;14.60;61.39;99075.16;113422;1193;24065;-77
2021/10/21 00:26:51;;;;;;;10.80;4.10;;;;;;;14.57;61.48;99077.19;113533;1200;22496;-77
2021/10/21 00:29:22;;;;;;;12.50;3.80;;;;;;;14.56;61.46;99073.38;113434;1200;23264;-77
2021/10/21 00:31:53;;;;;;;11.30;3.80;;;;;;;14.56;61.35;99064.60;113476;1200;22452;-78
2021/10/21 00:34:25;;;;;;;17.50;4.50;;;;;;;14.55;61.56;99057.71;113452;1200;22599;-77
2021/10/21 00:36:56;;;;;;;12.70;3.80;;;;;;;14.55;61.55;99054.48;113437;1200;22469;-77
2021/10/21 00:39:28;;;;;;;10.70;4.30;;;;;;;14.56;61.48;99049.94;113434;1200;22427;-78
2021/10/21 00:41:59;;;;;;;13.70;4.70;;;;;;;14.57;61.50;99058.96;113457;1200;22441;-77
2021/10/21 00:44:30;;;;;;;14.10;5.60;;;;;;;14.56;61.64;99058.06;113512;1200;25979;-77
2021/10/21 00:47:02;;;;;;;13.10;4.50;;;;;;;14.55;61.71;99050.15;114045;1200;22551;-78
2021/10/21 00:49:32;;;;;;;15.50;5.60;;;;;;;14.55;61.71;99047.55;113505;1200;24072;-78
2021/10/21 00:52:04;;;;;;;13.70;5.40;;;;;;;14.53;61.76;99047.02;113512;1200;22936;-78
2021/10/21 00:54:35;;;;;;;12.30;5.50;;;;;;;14.52;61.81;99051.95;113595;1200;25114;-78
2021/10/21 00:57:09;;;;;;;12.90;5.00;;;;;;;14.50;61.75;99048.09;113577;1200;25446;-78
2021/10/21 00:59:41;;;;;;;12.70;5.30;;;;;;;14.47;61.87;99041.80;113525;1200;22440;-77
2021/10/21 01:02:12;;;;;;;11.50;5.20;;;;;;;14.46;61.98;99030.34;113585;1200;22459;-78
2021/10/21 01:04:44;;;;;;;15.30;5.60;;;;;;;14.43;62.05;99025.34;113503;1200;22468;-78
2021/10/21 01:07:16;;;;;;;16.70;5.30;;;;;;;14.41;62.10;99026.74;113517;1200;25381;-77
2021/10/21 01:09:48;;;;;;;14.50;5.30;;;;;;;14.40;62.14;99023.09;113385;1200;22419;-78
2021/10/21 01:12:19;;;;;;;12.10;5.10;;;;;;;14.38;62.31;99017.55;113472;1200;24058;-77
2021/10/21 01:14:51;;;;;;;15.60;5.20;;;;;;;14.36;62.22;99013.85;113465;1200;22443;-77
2021/10/21 01:17:23;;;;;;;12.30;4.80;;;;;;;14.35;62.34;99019.80;113686;1200;24082;-77
2021/10/21 01:19:56;;;;;;;15.70;5.10;;;;;;;14.34;62.42;99024.29;113571;1200;24133;-78
2021/10/21 01:22:28;;;;;;;12.40;4.20;;;;;;;14.32;62.53;99035.76;113425;1200;22458;-78
2021/10/21 01:25:00;;;;;;;12.40;4.50;;;;;;;14.31;62.52;99034.40;113416;1200;25129;-77
2021/10/21 01:27:31;;;;;;;15.20;4.50;;;;;;;14.31;62.61;99036.14;113528;1200;25706;-78
2021/10/21 01:30:02;;;;;;;11.20;4.60;;;;;;;14.30;62.78;99028.08;113440;1200;24115;-77
2021/10/21 01:32:35;;;;;;;15.70;4.60;;;;;;;14.30;62.79;99022.83;113485;1200;25029;-78
2021/10/21 01:35:07;;;;;;;11.20;3.90;;;;;;;14.30;62.78;99011.08;113523;1200;25308;-78
2021/10/21 01:37:39;;;;;;;11.00;3.70;;;;;;;14.30;62.90;98996.79;113522;1200;22589;-77
2021/10/21 01:40:12;;;;;;;13.70;4.20;;;;;;;14.32;62.82;98989.01;113516;1200;23248;-77
2021/10/21 01:42:43;;;;;;;13.20;4.50;;;;;;;14.33;62.87;98986.59;113420;1185;22411;-77
2021/10/21 01:45:22;;;;;;;14.70;4.30;;;;;;;14.33;62.93;98980.98;113505;1200;22460;-77
2021/10/21 01:47:54;;;;;;;10.90;3.90;;;;;;;14.34;62.90;98976.36;113407;1200;25051;-77
2021/10/21 01:50:26;;;;;;;10.60;3.70;;;;;;;14.33;62.94;98964.54;113583;1200;23603;-77
2021/10/21 01:52:57;;;;;;;9.90;3.60;;;;;;;14.32;63.01;98958.13;113497;1200;22460;-78
2021/10/21 01:55:28;;;;;;;12.80;4.00;;;;;;;14.31;63.07;98955.89;113567;1200;25054;-77
2021/10/21 01:57:59;;;;;;;10.90;3.70;;;;;;;14.30;62.98;98947.60;113402;1200;24059;-78
2021/10/21 02:00:29;;;;;;;11.10;4.20;;;;;;;14.30;63.05;98945.61;113495;1200;22435;-78
2021/10/21 02:03:00;;;;;;;13.90;4.60;;;;;;;14.30;63.05;98942.95;113521;1200;22430;-78
2021/10/21 02:05:30;;;;;;;11.90;4.00;;;;;;;14.29;63.23;98921.88;113591;1200;26336;-77
2021/10/21 02:08:01;;;;;;;15.90;4.60;;;;;;;14.29;63.15;98932.80;113576;1200;25145;-77
2021/10/21 02:10:32;;;;;;;14.00;5.40;;;;;;;14.30;63.41;98939.84;113453;1200;24008;-77
2021/10/21 02:13:05;;;;;;;14.10;4.50;;;;;;;14.29;63.37;98943.42;113556;1200;22450;-77
2021/10/21 02:15:36;;;;;;;13.30;5.40;;;;;;;14.28;63.41;98950.57;113496;1200;24109;-78
2021/10/21 02:18:08;;;;;;;12.20;4.30;;;;;;;14.27;63.49;98958.79;113486;1200;25136;-78
2021/10/21 02:20:39;;;;;;;10.80;3.80;;;;;;;14.28;63.35;98954.30;113612;1200;22441;-77
2021/10/21 02:23:10;;;;;;;13.50;4.20;;;;;;;14.31;63.28;98957.27;113582;1200;22399;-77
2021/10/21 02:25:41;;;;;;;13.50;4.00;;;;;;;14.34;63.33;98955.19;113537;1200;22435;-78
2021/10/21 02:28:12;;;;;;;13.40;4.00;;;;;;;14.36;63.30;98955.45;113618;1193;25418;-77
2021/10/21 02:30:43;;;;;;;14.40;4.00;;;;;;;14.39;63.44;98948.02;113538;1192;25286;-77
2021/10/21 02:33:14;;;;;;;12.50;3.80;;;;;;;14.42;63.35;98928.40;113376;1185;24091;-77
2021/10/21 02:35:45;;;;;;;11.90;4.40;;;;;;;14.44;63.19;98914.11;113565;1200;24123;-77
2021/10/21 02:38:16;;;;;;;13.70;4.20;;;;;;;14.50;63.06;98908.28;113437;1200;22426;-77
2021/10/21 02:40:46;;;;;;;11.70;4.30;;;;;;;14.57;63.07;98891.17;113486;1200;25163;-77
2021/10/21 02:43:17;;;;;;;15.00;4.80;;;;;;;14.63;62.98;98880.48;113366;1199;22432;-78
2021/10/21 02:45:48;;;;;;;14.60;4.60;;;;;;;14.69;62.86;98876.17;113896;1179;96638;-61
2021/10/21 02:48:19;;;;;;;12.20;4.30;;;;;;;14.73;62.67;98866.08;113356;1198;22438;-61
2021/10/21 02:50:50;;;;;;;12.70;3.80;;;;;;;14.77;62.74;98861.86;113198;1198;24040;-63
2021/10/21 02:53:21;;;;;;;13.70;4.20;;;;;;;14.80;62.72;98856.40;113097;1198;25084;-64
2021/10/21 02:55:53;;;;;;;12.90;4.30;;;;;;;14.83;62.62;98859.52;112985;1193;25088;-63
2021/10/21 02:58:24;;;;;;;11.80;4.20;;;;;;;14.85;62.56;98850.07;113031;1198;25684;-63
2021/10/21 03:00:55;;;;;;;10.70;3.90;;;;;;;14.86;62.46;98831.60;113109;1192;24049;-62
2021/10/21 03:03:26;;;;;;;11.40;3.50;;;;;;;14.87;62.50;98827.13;113052;1191;26725;-61
2021/10/21 03:05:56;;;;;;;9.70;3.50;;;;;;;14.88;62.51;98833.84;113105;1191;22433;-62
2021/10/21 03:08:27;;;;;;;11.90;3.80;;;;;;;14.89;62.34;98837.86;113041;1198;22986;-63
2021/10/21 03:10:58;;;;;;;11.30;4.40;;;;;;;14.91;62.32;98833.23;112972;1193;25092;-62
2021/10/21 03:13:29;;;;;;;13.40;4.20;;;;;;;14.92;62.37;98830.73;112984;1193;24992;-61
2021/10/21 03:16:01;;;;;;;10.60;4.60;;;;;;;14.92;62.33;98821.61;113039;1198;24005;-62
2021/10/21 03:18:32;;;;;;;12.00;4.00;;;;;;;14.93;62.35;98820.92;113107;1192;24232;-61
2021/10/21 03:21:03;;;;;;;13.50;4.60;;;;;;;14.95;62.28;98816.81;113075;1198;22408;-61
2021/10/21 03:23:34;;;;;;;15.30;4.60;;;;;;;14.95;62.31;98818.89;113026;1198;22432;-61
2021/10/21 03:26:05;;;;;;;11.70;3.80;;;;;;;14.96;62.33;98809.48;113125;1198;24083;-62
2021/10/21 03:28:39;;;;;;;13.10;4.40;;;;;;;14.96;62.27;98806.57;113055;1192;22459;-61
2021/10/21 03:31:10;;;;;;;14.60;4.10;;;;;;;14.95;62.25;98803.41;113061;1198;22418;-62
2021/10/21 03:33:41;;;;;;;10.70;3.50;;;;;;;14.94;62.35;98795.27;113052;1198;22896;-62
2021/10/21 03:36:11;;;;;;;12.20;4.20;;;;;;;14.93;62.31;98788.29;113065;1193;24034;-61
2021/10/21 03:38:42;;;;;;;12.30;3.90;;;;;;;14.92;62.36;98777.07;113335;1198;25849;-61
2021/10/21 03:41:13;;;;;;;12.00;4.00;;;;;;;14.92;62.36;98776.47;112993;1199;22413;-61
2021/10/21 03:43:46;;;;;;;13.00;3.80;;;;;;;14.90;62.33;98771.98;113350;1198;22458;-61
2021/10/21 03:46:19;;;;;;;12.10;3.40;;;;;;;14.91;62.33;98764.84;113173;1192;25204;-61
2021/10/21 03:48:50;;;;;;;16.50;4.50;;;;;;;14.92;62.36;98757.10;113329;1198;22444;-62
2021/10/21 03:51:21;;;;;;;14.30;4.70;;;;;;;14.93;62.30;98755.98;113287;1199;22461;-64
2021/10/21 03:53:51;;;;;;;10.50;4.30;;;;;;;14.95;62.34;98752.52;113150;1199;22524;-62
2021/10/21 03:56:22;;;;;;;11.30;4.30;;;;;;;14.97;62.22;98748.70;113074;1198;22423;-62
2021/10/21 03:58:54;;;;;;;13.00;5.20;;;;;;;15.01;62.14;98747.95;113052;1198;22439;-62
2021/10/21 04:01:25;;;;;;;13.50;4.30;;;;;;;15.04;62.08;98748.23;113086;1198;22578;-62
2021/10/21 04:03:56;;;;;;;12.10;3.80;;;;;;;15.07;62.04;98752.92;113021;1199;22456;-62
2021/10/21 04:06:27;;;;;;;12.10;4.70;;;;;;;15.08;61.98;98750.34;112982;1198;26351;-62
2021/10/21 04:08:58;;;;;;;16.30;5.00;;;;;;;15.08;62.17;98752.52;113021;1177;25072;-62
2021/10/21 04:11:29;;;;;;;13.70;4.80;;;;;;;15.09;62.08;98750.30;112928;1198;22490;-62
2021/10/21 04:14:00;;;;;;;13.90;5.20;;;;;;;15.10;62.04;98745.08;113035;1192;22545;-62
2021/10/21 04:16:31;;;;;;;12.80;4.80;;;;;;;15.10;62.07;98750.19;113151;1198;22430;-62
2021/10/21 04:19:03;;;;;;;12.00;4.30;;;;;;;15.12;62.14;98737.38;113240;1198;25109;-62
2021/10/21 04:21:33;;;;;;;12.70;4.90;;;;;;;15.13;62.22;98742.00;113137;1197;24098;-62
2021/10/21 04:24:05;;;;;;;12.70;4.30;;;;;;;15.13;62.21;98770.52;113000;1197;22422;-61
2021/10/21 04:26:35;;;;;;;12.60;4.30;;;;;;;15.12;62.30;98789.45;113003;1197;25372;-61
2021/10/21 04:29:06;;;;;;;12.30;5.20;;;;;;;15.11;62.47;98796.52;113055;1192;22652;-62
2021/10/21 04:31:37;;;;;;;15.70;4.70;;;;;;;15.11;62.91;98796.48;113231;1198;22449;-61
2021/10/21 04:34:08;;;;;;;14.40;5.10;;;;;;;15.06;63.89;98804.13;113252;1183;24055;-59
2021/10/21 04:36:39;;;;;;;15.50;5.50;;;;;;;14.96;64.62;98815.18;113268;1199;23761;-65
2021/10/21 04:39:09;;;;;;;17.20;6.40;;;;;;;14.84;65.50;98817.50;113054;1198;25692;-65
2021/10/21 04:41:40;;;;;;;22.00;6.50;;;;;;;14.66;66.35;98806.21;113046;1198;25096;-64
2021/10/21 04:44:11;;;;;;;17.10;6.30;;;;;;;14.46;67.06;98794.00;113056;1198;24823;-65
2021/10/21 04:46:42;;;;;;;14.60;5.50;;;;;;;14.30;67.65;98767.41;113209;1198;22424;-64
2021/10/21 04:49:13;;;;;;;15.30;6.20;;;;;;;14.18;68.21;98775.85;113182;1193;22437;-58
2021/10/21 04:51:44;;;;;;;17.00;6.80;;;;;;;14.08;68.65;98751.95;113080;1192;22547;-60
2021/10/21 04:54:15;;;;;;;22.30;8.10;;;;;;;14.00;69.04;98729.16;113157;1198;22482;-61
2021/10/21 04:56:46;;;;;;;17.10;7.30;;;;;;;13.92;69.36;98723.58;112973;1199;22426;-60
2021/10/21 04:59:17;;;;;;;15.80;6.40;;;;;;;13.87;69.41;98726.11;112986;1193;24021;-58
2021/10/21 05:01:48;;;;;;;16.90;8.00;;;;;;;13.83;69.71;98726.65;113149;1198;22446;-59
2021/10/21 05:04:19;;;;;;;16.30;6.90;;;;;;;13.80;69.91;98722.12;112980;1199;25104;-59
2021/10/21 05:06:50;;;;;;;19.30;7.20;;;;;;;13.76;70.22;98708.93;113292;1192;23784;-60
2021/10/21 05:09:21;;;;;;;18.20;7.70;;;;;;;13.72;70.44;98703.34;113153;1192;22438;-62
2021/10/21 05:11:52;;;;;;;17.50;8.50;;;;;;;13.68;70.76;98698.94;113061;1192;22432;-61
2021/10/21 05:14:24;;;;;;;17.30;8.10;;;;;;;13.64;70.93;98697.79;112896;1198;22449;-69
2021/10/21 05:16:56;;;;;;;20.20;8.80;;;;;;;13.61;71.10;98700.42;113031;1197;25117;-61
2021/10/21 05:19:28;;;;;;;16.90;7.60;;;;;;;13.58;71.29;98701.41;113247;1198;24995;-60
2021/10/21 05:21:58;;;;;;;16.20;8.30;;;;;;;13.55;71.53;98702.31;113060;1198;22898;-62
2021/10/21 05:24:30;;;;;;;18.20;8.10;;;;;;;13.53;71.58;98708.38;113166;1183;24005;-61
2021/10/21 05:27:01;;;;;;;19.90;8.60;;;;;;;13.50;71.54;98713.58;112801;1198;25896;-62
2021/10/21 05:29:33;;;;;;;20.50;8.80;;;;;;;13.49;71.66;98714.30;113235;1198;25406;-61
2021/10/21 05:32:07;;;;;;;18.70;8.00;;;;;;;13.49;71.79;98709.21;113285;1198;25030;-59
2021/10/21 05:34:39;;;;;;;18.40;8.10;;;;;;;13.49;71.62;98709.33;113238;1199;24011;-59
2021/10/21 05:37:10;;;;;;;17.00;7.00;;;;;;;13.48;71.75;98711.06;113204;1198;22435;-61
2021/10/21 05:39:40;;;;;;;18.90;7.30;;;;;;;13.47;71.87;98708.17;113186;1191;22744;-61
2021/10/21 05:42:11;;;;;;;20.60;8.90;;;;;;;13.46;72.11;98704.12;113185;1192;22408;-61
2021/10/21 05:44:43;;;;;;;19.10;9.10;;;;;;;13.44;72.21;98700.64;113241;1192;22429;-59
2021/10/21 05:47:14;;;;;;;20.20;9.10;;;;;;;13.43;72.32;98684.44;113139;1198;24998;-60
2021/10/21 05:49:46;;;;;;;19.00;8.90;;;;;;;13.42;72.42;98685.06;113193;1198;22464;-61
2021/10/21 05:52:19;;;;;;;18.80;8.40;;;;;;;13.42;72.72;98699.73;113419;1198;24995;-60
2021/10/21 05:54:50;;;;;;;18.90;8.40;;;;;;;13.39;72.75;98696.78;113095;1198;22434;-61
2021/10/21 05:57:21;;;;;;;20.70;8.90;;;;;;;13.38;72.78;98687.98;113337;1198;25457;-63
2021/10/21 05:59:53;;;;;;;19.50;8.10;;;;;;;13.37;72.75;98684.34;113420;1198;22445;-60
2021/10/21 06:02:25;;;;;;;19.00;8.60;;;;;;;13.36;72.88;98686.23;113170;1192;22522;-61
2021/10/21 06:04:56;;;;;;;19.00;8.70;;;;;;;13.35;73.07;98684.16;113191;1198;26408;-62
2021/10/21 06:07:27;;;;;;;17.70;8.60;;;;;;;13.33;73.10;98681.29;113009;1198;25089;-62
2021/10/21 06:09:59;;;;;;;22.00;9.60;;;;;;;13.32;73.08;98673.05;113145;1198;25119;-61
2021/10/21 06:12:30;;;;;;;19.80;8.80;;;;;;;13.32;73.24;98670.92;113100;1198;22734;-62
2021/10/21 06:15:04;;;;;;;19.10;9.00;;;;;;;13.31;73.30;98674.86;113072;1193;22450;-59
2021/10/21 06:17:35;;;;;;;19.90;8.80;;;;;;;13.31;73.10;98674.15;113050;1193;25023;-60
2021/10/21 06:20:10;;;;;;;18.80;8.70;;;;;;;13.30;73.25;98666.41;112985;1198;25113;-61
2021/10/21 06:22:42;;;;;;;20.40;8.20;;;;;;;13.30;73.04;98656.80;113523;1198;24061;-61
2021/10/21 06:25:13;;;;;;;18.50;8.40;;;;;;;13.30;73.33;98664.73;117220;1198;22102;-62
2021/10/21 06:27:44;;;;;;;21.70;10.00;;;;;;;13.30;73.20;98667.45;117222;1197;22366;-61
2021/10/21 06:30:15;;;;;;;22.20;9.60;;;;;;;13.30;73.18;98680.34;114166;1192;25016;-61
2021/10/21 06:32:47;;;;;;;19.60;9.90;;;;;;;13.30;73.20;98688.90;113064;1198;22607;-61
2021/10/21 06:35:19;;;;;;;21.00;10.40;;;;;;;13.29;73.14;98684.01;113510;1199;22535;-61
2021/10/21 06:37:50;;;;;;;21.10;9.60;;;;;;;13.29;73.27;98693.89;113165;1198;24867;-59
2021/10/21 06:40:22;;;;;;;22.70;11.70;;;;;;;13.29;73.18;98710.15;113148;1192;26269;-61
2021/10/21 06:42:53;;;;;;;20.80;11.00;;;;;;;13.29;73.21;98708.42;113184;1198;22432;-61
2021/10/21 06:45:24;;;;;;;23.70;11.00;;;;;;;13.28;73.27;98697.69;113108;1198;25098;-59
2021/10/21 06:47:56;;;;;;;19.00;8.80;;;;;;;13.28;73.05;98698.36;113347;1198;23540;-61
2021/10/21 06:50:27;;;;;;;21.90;10.80;;;;;;;13.27;73.11;98709.37;113054;1198;22428;-61
2021/10/21 06:53:00;;;;;;;23.60;11.00;;;;;;;13.26;73.27;98721.73;113301;1198;25267;-59
2021/10/21 06:55:31;;;;;;;22.30;12.00;;;;;;;13.26;73.18;98730.44;113075;1198;22469;-61
2021/10/21 06:58:01;;;;;;;23.20;10.50;;;;;;;13.26;73.41;98717.55;113105;1198;24995;-61
2021/10/21 07:00:39;;;;;;;24.90;11.90;;;;;;;13.25;73.34;98708.69;113146;1198;22990;-59
2021/10/21 07:03:13;;;;;;;26.20;12.70;;;;;;;13.24;73.68;98682.37;113212;1199;24995;-61
2021/10/21 07:05:45;;;;;;;25.30;12.10;;;;;;;13.22;73.82;98667.67;113140;1199;22433;-61
2021/10/21 07:08:16;;;;;;;27.30;15.80;;;;;;;13.20;73.91;98642.39;113112;1199;25178;-62
2021/10/21 07:10:47;;;;;;;35.00;21.00;;;;;;;13.19;73.81;98652.75;113603;1198;22438;-63
2021/10/21 07:13:19;;;;;;;31.20;16.80;;;;;;;13.18;74.13;98640.94;113139;1198;22459;-62
2021/10/21 07:15:50;;;;;;;22.60;12.70;;;;;;;13.19;74.15;98637.77;113229;1198;25091;-62
2021/10/21 07:18:21;;;;;;;22.50;11.60;;;;;;;13.19;74.15;98652.64;113130;1198;24025;-63
2021/10/21 07:20:52;;;;;;;23.80;11.20;;;;;;;13.20;74.27;98661.02;113143;1198;22769;-61
2021/10/21 07:23:23;;;;;;;21.40;11.30;;;;;;;13.21;74.36;98634.57;113211;1192;23741;-62
2021/10/21 07:25:53;;;;;;;19.40;10.50;;;;;;;13.23;74.22;98637.55;113397;1198;22679;-62
2021/10/21 07:28:24;;;;;;;20.50;10.50;;;;;;;13.24;74.22;98626.47;113118;1198;22414;-62
2021/10/21 07:30:57;;;;;;;21.30;11.00;;;;;;;13.25;74.37;98644.95;113083;1198;24027;-62
2021/10/21 07:33:28;;;;;;;22.30;11.30;;;;;;;13.27;74.48;98635.70;113218;1198;22475;-62
2021/10/21 07:35:59;;;;;;;21.30;11.20;;;;;;;13.27;74.35;98637.73;113165;1198;24998;-62
2021/10/21 07:38:31;;;;;;;24.70;12.80;;;;;;;13.28;74.48;98633.09;113076;1198;22447;-63
2021/10/21 07:41:02;;;;;;;25.80;14.90;;;;;;;13.29;74.46;98618.29;113215;1198;22436;-62
2021/10/21 07:43:34;;;;;;;27.50;16.20;;;;;;;13.30;74.25;98621.79;113168;1198;24030;-62
2021/10/21 07:46:05;;;;;;;26.80;16.20;;;;;;;13.32;74.40;98619.45;113199;1192;22752;-62
2021/10/21 07:48:36;;;;;;;31.60;18.40;;;;;;;13.33;74.45;98606.14;113184;1199;22467;-62
2021/10/21 07:51:08;;;;;;;33.70;20.00;;;;;;;13.34;74.39;98593.98;113195;1198;22443;-63
2021/10/21 07:53:39;;;;;;;27.40;15.20;;;;;;;13.36;74.59;98599.20;113166;1198;25006;-62
2021/10/21 07:56:10;;;;;;;23.00;12.70;;;;;;;13.38;74.41;98594.33;113101;1198;24065;-63
2021/10/21 07:58:41;;;;;;;21.80;10.90;;;;;;;13.40;74.55;98597.49;113207;1198;25017;-62
2021/10/21 08:01:12;;;;;;;20.00;8.50;;;;;;;13.41;74.67;98589.89;113252;1191;22433;-62
2021/10/21 08:03:43;;;;;;;22.30;10.60;;;;;;;13.41;74.65;98585.59;113283;1199;22468;-62
2021/10/21 08:06:14;;;;;;;20.60;9.40;;;;;;;13.43;74.80;98597.23;113292;1198;24109;-62
2021/10/21 08:08:46;;;;;;;18.70;8.70;;;;;;;13.44;74.78;98606.20;113212;1199;22863;-63
2021/10/21 08:11:17;;;;;;;22.40;9.60;;;;;;;13.46;74.70;98604.81;113322;1192;24036;-63
2021/10/21 08:13:48;;;;;;;21.30;10.50;;;;;;;13.49;74.54;98590.94;113240;1198;25127;-62
2021/10/21 08:16:19;;;;;;;19.20;9.50;;;;;;;13.51;74.66;98586.12;113273;1198;22998;-62
2021/10/21 08:18:51;;;;;;;16.90;8.00;;;;;;;13.54;74.52;98586.16;113229;1199;24099;-62
2021/10/21 08:21:22;;;;;;;18.60;8.90;;;;;;;13.57;74.61;98564.29;113149;1198;25036;-63
2021/10/21 08:23:55;;;;;;;25.50;8.80;;;;;;;13.59;74.69;98561.55;113108;1192;22420;-62
2021/10/21 08:26:27;;;;;;;20.90;11.20;;;;;;;13.61;74.65;98560.13;113054;1198;22440;-63
2021/10/21 08:28:58;;;;;;;24.80;11.50;;;;;;;13.64;74.85;98544.77;113111;1192;23802;-63
2021/10/21 08:31:31;;;;;;;19.20;9.50;;;;;;;13.67;74.71;98528.34;113291;1198;24043;-62
2021/10/21 08:34:03;;;;;;;17.50;7.80;;;;;;;13.70;74.78;98521.24;113231;1198;22443;-62
2021/10/21 08:36:34;;;;;;;17.10;7.00;;;;;;;13.74;74.76;98526.76;113096;1198;25546;-62
2021/10/21 08:39:07;;;;;;;18.00;7.10;;;;;;;13.77;74.89;98523.02;113047;1193;25107;-62
2021/10/21 08:41:41;;;;;;;14.20;6.10;;;;;;;13.81;74.88;98526.33;113223;1198;24776;-62
2021/10/21 08:44:14;;;;;;;15.40;7.20;;;;;;;13.85;74.90;98530.73;113062;1198;22492;-62
2021/10/21 08:46:47;;;;;;;15.80;6.90;;;;;;;13.88;74.79;98534.44;113856;1170;24086;-57
2021/10/21 08:49:19;;;;;;;14.50;6.40;;;;;;;13.91;74.85;98523.41;113573;1199;22577;-60
2021/10/21 08:51:53;;;;;;;14.90;6.60;;;;;;;13.94;74.93;98509.41;113664;1199;25121;-57
2021/10/21 08:54:26;;;;;;;17.70;5.50;;;;;;;13.99;74.80;98489.87;113612;1199;25203;-58
2021/10/21 08:57:01;;;;;;;11.90;4.70;;;;;;;14.05;74.77;98460.34;113853;1199;22474;-60
2021/10/21 08:59:32;;;;;;;11.80;4.30;;;;;;;14.12;74.68;98491.55;113668;1199;22473;-57
2021/10/21 09:02:10;;;;;;;11.10;3.90;;;;;;;14.20;74.63;98474.58;113625;1199;25587;-59
2021/10/21 09:04:56;;;;;;;10.60;4.60;;;;;;;14.29;74.30;98462.85;113541;1200;25583;-58
2021/10/21 09:10:21;;;;;;;12.70;3.60;;;;;;;14.49;74.02;98485.73;113260;1193;22421;-61
2021/10/21 09:12:54;;;;;;;12.80;4.40;;;;;;;14.58;73.90;98489.59;113413;1199;22422;-66
2021/10/21 09:15:28;;;;;;;14.00;5.80;;;;;;;14.67;73.80;98492.17;113212;1199;22442;-60
2021/10/21 09:18:12;;;;;;;16.40;5.00;;;;;;;14.75;73.28;98487.14;113174;1200;22646;-65
2021/10/21 09:20:45;;;;;;;10.90;4.20;;;;;;;14.83;73.05;98488.60;112945;1199;22892;-66
2021/10/21 09:23:18;;;;;;;10.10;3.80;;;;;;;14.91;72.71;98489.27;113467;1200;22424;-60
2021/10/21 09:25:49;;;;;;;12.00;3.50;;;;;;;14.99;72.39;98480.09;113156;1199;24184;-61
2021/10/21 09:28:23;;;;;;;9.20;2.90;;;;;;;15.06;72.23;98476.95;113205;1200;24172;-60
2021/10/21 09:31:03;;;;;;;9.60;3.30;;;;;;;15.12;72.03;98480.11;113276;1199;22462;-59
2021/10/21 09:33:47;;;;;;;11.40;3.40;;;;;;;15.17;71.78;98476.09;113139;1199;22445;-60
2021/10/21 09:36:22;;;;;;;7.70;2.50;;;;;;;15.21;71.65;98473.61;113128;1198;22583;-60
2021/10/21 09:38:55;;;;;;;8.50;2.60;;;;;;;15.26;71.42;98468.11;112884;1199;22432;-59
2021/10/21 09:41:34;;;;;;;9.20;2.00;;;;;;;15.32;71.03;98463.02;113038;1199;25190;-60
2021/10/21 09:44:26;;;;;;;10.90;2.20;;;;;;;15.41;70.84;98458.92;113007;1193;22444;-60
2021/10/21 09:46:57;;;;;;;8.10;1.80;;;;;;;15.50;70.28;98463.18;112866;1200;22958;-61
2021/10/21 09:49:32;;;;;;;8.50;2.00;;;;;;;15.59;70.00;98459.62;113018;1192;22451;-61
2021/10/21 09:52:04;;;;;;;8.80;2.20;;;;;;;15.67;69.78;98465.44;113115;1198;22441;-59
2021/10/21 09:54:40;;;;;;;8.00;2.70;;;;;;;15.74;69.63;98471.00;113061;1199;24147;-60
2021/10/21 09:57:13;;;;;;;7.10;1.90;;;;;;;15.79;69.39;98475.59;113135;1199;24893;-58
2021/10/21 09:59:46;;;;;;;7.30;2.10;;;;;;;15.83;69.11;98486.69;112915;1199;22468;-62
2021/10/21 10:02:23;;;;;;;6.60;1.90;;;;;;;15.85;68.71;98487.74;112913;1197;26595;-60
2021/10/21 10:04:55;;;;;;;9.30;2.30;;;;;;;15.88;68.76;98478.98;112811;1193;22554;-61
2021/10/21 10:07:28;;;;;;;8.00;1.90;;;;;;;15.87;68.76;98486.25;112848;1193;24198;-59
2021/10/21 10:10:00;;;;;;;7.60;2.20;;;;;;;15.87;68.42;98463.40;113150;1199;24172;-59
2021/10/21 10:12:32;;;;;;;8.00;2.10;;;;;;;15.86;68.48;98463.92;113123;1199;22527;-60
2021/10/21 10:15:05;;;;;;;5.40;1.90;;;;;;;15.87;68.08;98457.36;113011;1199;22465;-59
2021/10/21 10:17:35;;;;;;;6.40;1.90;;;;;;;15.90;67.96;98455.56;112949;1199;22442;-59
2021/10/21 10:20:09;;;;;;;5.90;1.30;;;;;;;15.93;67.92;98461.09;113105;1199;22428;-62
2021/10/21 10:22:43;;;;;;;9.10;1.60;;;;;;;15.98;66.65;98458.96;112923;1199;24158;-59
2021/10/21 10:25:24;;;;;;;8.20;0.80;;;;;;;16.09;64.85;98461.22;113137;1199;25645;-58
2021/10/21 10:28:00;;;;;;;4.30;1.10;;;;;;;16.29;64.97;98453.05;113353;1192;24086;-60
2021/10/21 10:30:48;;;;;;;3.00;0.80;;;;;;;16.42;64.42;98460.05;112905;1199;24072;-60
2021/10/21 10:33:42;;;;;;;5.40;0.90;;;;;;;16.55;63.71;98436.92;112788;1192;22470;-59
2021/10/21 10:36:32;;;;;;;4.80;0.90;;;;;;;16.65;62.65;98427.90;113003;1199;22440;-58
2021/10/21 10:39:06;;;;;;;11.70;1.00;;;;;;;16.72;60.95;98431.23;113117;1192;22516;-58
2021/10/21 10:41:57;;;;;;;6.30;0.90;;;;;;;16.77;61.80;98433.84;113033;1199;22440;-61
2021/10/21 10:45:08;;;;;;;5.20;0.80;;;;;;;16.86;60.59;98436.30;112774;1187;23127;-59
2021/10/21 10:50:52;;;;;;;5.50;0.90;;;;;;;17.21;59.57;98448.34;112532;1215;557910;-81
2021/10/21 10:53:44;;;;;;;10.00;1.40;;;;;;;17.33;59.65;98443.96;114374;1196;22533;-80
2021/10/21 10:56:49;;;;;;;6.10;0.90;;;;;;;17.44;59.47;98453.42;114053;1196;25114;-80
2021/10/21 10:59:28;;;;;;;7.80;0.90;;;;;;;17.56;58.05;98463.48;114479;1191;22442;-81
2021/10/21 11:01:57;;;;;;;9.40;0.60;;;;;;;17.67;55.18;98478.51;114425;1197;22488;-81
2021/10/21 11:05:18;;;;;;;10.90;0.70;;;;;;;17.70;54.39;98486.62;114361;1197;23756;-81
2021/10/21 11:07:53;;;;;;;10.50;0.60;;;;;;;17.71;52.64;98480.59;114314;1197;22427;-82
2021/10/21 11:10:41;;;;;;;8.80;0.50;;;;;;;17.69;51.86;98493.51;114387;1197;22427;-81
2021/10/21 11:13:36;;;;;;;11.40;0.50;;;;;;;17.65;50.83;98489.11;114427;1197;22435;-81
2021/10/21 11:16:44;;;;;;;4.40;0.20;;;;;;;17.66;50.28;98484.27;114417;1198;22462;-81
2021/10/21 11:19:14;;;;;;;7.10;0.40;;;;;;;17.70;48.15;98484.89;114398;1197;22471;-81
2021/10/21 11:21:55;;;;;;;9.90;0.40;;;;;;;17.73;47.41;98488.97;114423;1197;22500;-81
2021/10/21 11:25:00;;;;;;;7.20;0.40;;;;;;;17.74;47.43;98502.59;114371;1197;22472;-81
2021/10/21 11:27:36;;;;;;;11.80;0.40;;;;;;;17.74;46.90;98513.92;114395;1197;23050;-81
2021/10/21 11:30:31;;;;;;;6.40;0.20;;;;;;;17.74;45.55;98511.92;114409;1196;24045;-81
2021/10/21 11:33:03;;;;;;;10.10;0.40;;;;;;;17.75;46.06;98504.92;114376;1197;22391;-81
2021/10/21 11:35:37;;;;;;;19.00;0.50;;;;;;;17.79;47.05;98501.48;114376;1197;22403;-82
2021/10/21 11:38:13;;;;;;;1.90;0.20;;;;;;;17.81;46.58;98512.95;114425;1197;22485;-82
2021/10/21 11:40:51;;;;;;;5.30;0.20;;;;;;;17.80;45.86;98513.86;114404;1197;22481;-82
2021/10/21 11:43:22;;;;;;;1.50;0.20;;;;;;;17.78;46.46;98511.88;114442;1197;22456;-81
2021/10/21 11:45:58;;;;;;;6.30;0.30;;;;;;;17.75;45.97;98520.62;114348;1197;22429;-81
2021/10/21 11:48:32;;;;;;;8.00;0.30;;;;;;;17.72;46.34;98517.10;114315;1198;22421;-81
2021/10/21 11:51:04;;;;;;;6.60;0.30;;;;;;;17.69;46.09;98521.88;114240;1197;22464;-81